Upper Brookville, New York
Current Conditions -  °F | °C
As of 4:53 AM on Tuesday 21 Oct 2014 (Local Time) from KFRG Reporting Station
Clear Clear  
Wind Chill: 11°   Ceiling: Unl
Heat Index: 11°   Visibility: 10mi
Dew Point:   Wind: 3mph
Humidity: 83%   Direction: 360°N
Pressure: 29.91"   Gusts: NA
Location:  40.8471°N, 73.5334°W
Report Text: KFRG 210853Z 36003KT 10SM CLR 11/08 A2991 RMK AO2 SLP127 T01110083 58014
Loading
Personal Weather Stations






























Interactive Weather Map
Tropical Storm Tracking
New forecast layout! Learn more

10-Day Weather Forecast

Advertisements
Track Severe Weather on mobile